sensor_id;sensor_type;location;lat;lon;timestamp;P1;durP1;ratioP1;P2;durP2;ratioP2
43823;SDS011;29470;53.550;9.926;2022-12-05T00:02:31;39.95;;;16.88;;
43823;SDS011;29470;53.550;9.926;2022-12-05T00:07:34;35.92;;;15.65;;
43823;SDS011;29470;53.550;9.926;2022-12-05T00:12:38;35.47;;;16.52;;
43823;SDS011;29470;53.550;9.926;2022-12-05T00:17:42;32.45;;;15.05;;
43823;SDS011;29470;53.550;9.926;2022-12-05T00:22:45;35.10;;;14.48;;
43823;SDS011;29470;53.550;9.926;2022-12-05T00:27:48;35.35;;;15.23;;
43823;SDS011;29470;53.550;9.926;2022-12-05T00:32:52;34.47;;;15.43;;
43823;SDS011;29470;53.550;9.926;2022-12-05T00:37:55;30.80;;;14.80;;
43823;SDS011;29470;53.550;9.926;2022-12-05T00:42:58;31.80;;;14.13;;
43823;SDS011;29470;53.550;9.926;2022-12-05T00:48:02;33.40;;;14.57;;
43823;SDS011;29470;53.550;9.926;2022-12-05T00:53:05;32.50;;;14.55;;
43823;SDS011;29470;53.550;9.926;2022-12-05T00:58:08;28.80;;;13.23;;
43823;SDS011;29470;53.550;9.926;2022-12-05T01:03:12;30.33;;;13.95;;
43823;SDS011;29470;53.550;9.926;2022-12-05T01:08:15;29.52;;;13.48;;
43823;SDS011;29470;53.550;9.926;2022-12-05T01:13:18;33.20;;;14.38;;
43823;SDS011;29470;53.550;9.926;2022-12-05T01:18:22;32.80;;;14.77;;
43823;SDS011;29470;53.550;9.926;2022-12-05T01:23:26;28.67;;;13.27;;
43823;SDS011;29470;53.550;9.926;2022-12-05T01:28:29;29.42;;;14.05;;
43823;SDS011;29470;53.550;9.926;2022-12-05T01:33:34;28.83;;;13.30;;
43823;SDS011;29470;53.550;9.926;2022-12-05T01:38:37;27.90;;;12.43;;
43823;SDS011;29470;53.550;9.926;2022-12-05T01:43:53;29.63;;;13.23;;
43823;SDS011;29470;53.550;9.926;2022-12-05T01:49:00;26.67;;;12.53;;
43823;SDS011;29470;53.550;9.926;2022-12-05T01:54:07;29.23;;;13.23;;
43823;SDS011;29470;53.550;9.926;2022-12-05T01:59:11;25.38;;;12.52;;
43823;SDS011;29470;53.550;9.926;2022-12-05T02:04:16;26.45;;;12.35;;
43823;SDS011;29470;53.550;9.926;2022-12-05T02:09:19;29.23;;;13.25;;
43823;SDS011;29470;53.550;9.926;2022-12-05T02:14:26;28.73;;;13.30;;
43823;SDS011;29470;53.550;9.926;2022-12-05T02:19:46;27.23;;;13.15;;
43823;SDS011;29470;53.550;9.926;2022-12-05T02:30:38;28.33;;;13.88;;
43823;SDS011;29470;53.550;9.926;2022-12-05T02:35:47;28.40;;;14.33;;
43823;SDS011;29470;53.550;9.926;2022-12-05T02:41:02;29.95;;;14.70;;
43823;SDS011;29470;53.550;9.926;2022-12-05T02:46:14;32.58;;;15.60;;
43823;SDS011;29470;53.550;9.926;2022-12-05T02:51:21;30.85;;;15.18;;
43823;SDS011;29470;53.550;9.926;2022-12-05T02:56:27;31.50;;;15.20;;
43823;SDS011;29470;53.550;9.926;2022-12-05T03:01:35;31.90;;;15.57;;
43823;SDS011;29470;53.550;9.926;2022-12-05T03:06:39;31.23;;;14.80;;
43823;SDS011;29470;53.550;9.926;2022-12-05T03:11:45;30.30;;;15.25;;
43823;SDS011;29470;53.550;9.926;2022-12-05T03:16:52;31.50;;;15.70;;
43823;SDS011;29470;53.550;9.926;2022-12-05T03:22:00;30.90;;;14.65;;
43823;SDS011;29470;53.550;9.926;2022-12-05T03:27:08;27.63;;;14.10;;
43823;SDS011;29470;53.550;9.926;2022-12-05T03:32:21;32.67;;;15.10;;
43823;SDS011;29470;53.550;9.926;2022-12-05T03:37:31;31.55;;;14.23;;
43823;SDS011;29470;53.550;9.926;2022-12-05T03:43:04;35.88;;;16.40;;
43823;SDS011;29470;53.550;9.926;2022-12-05T03:48:15;34.05;;;15.60;;
43823;SDS011;29470;53.550;9.926;2022-12-05T03:53:24;36.53;;;17.20;;
43823;SDS011;29470;53.550;9.926;2022-12-05T03:58:30;38.65;;;17.13;;
43823;SDS011;29470;53.550;9.926;2022-12-05T04:03:40;38.10;;;16.60;;
43823;SDS011;29470;53.550;9.926;2022-12-05T04:08:47;34.65;;;16.40;;
43823;SDS011;29470;53.550;9.926;2022-12-05T04:13:54;35.97;;;16.33;;
43823;SDS011;29470;53.550;9.926;2022-12-05T04:19:04;38.65;;;17.27;;
43823;SDS011;29470;53.550;9.926;2022-12-05T04:24:11;40.03;;;16.88;;
43823;SDS011;29470;53.550;9.926;2022-12-05T04:29:51;42.47;;;17.80;;
43823;SDS011;29470;53.550;9.926;2022-12-05T04:35:04;38.80;;;17.70;;
43823;SDS011;29470;53.550;9.926;2022-12-05T04:40:13;39.08;;;16.20;;
43823;SDS011;29470;53.550;9.926;2022-12-05T04:45:21;41.03;;;17.98;;
43823;SDS011;29470;53.550;9.926;2022-12-05T04:50:29;38.97;;;17.13;;
43823;SDS011;29470;53.550;9.926;2022-12-05T04:55:35;40.10;;;16.90;;
43823;SDS011;29470;53.550;9.926;2022-12-05T05:00:44;40.25;;;17.50;;
43823;SDS011;29470;53.550;9.926;2022-12-05T05:05:53;38.72;;;16.95;;
43823;SDS011;29470;53.550;9.926;2022-12-05T05:11:03;40.55;;;16.88;;
43823;SDS011;29470;53.550;9.926;2022-12-05T05:16:13;39.85;;;17.35;;
43823;SDS011;29470;53.550;9.926;2022-12-05T05:21:22;39.70;;;16.10;;
43823;SDS011;29470;53.550;9.926;2022-12-05T05:26:27;41.65;;;16.52;;
43823;SDS011;29470;53.550;9.926;2022-12-05T05:31:30;40.88;;;16.73;;
43823;SDS011;29470;53.550;9.926;2022-12-05T05:36:35;39.38;;;16.67;;
43823;SDS011;29470;53.550;9.926;2022-12-05T05:41:39;43.72;;;17.33;;
43823;SDS011;29470;53.550;9.926;2022-12-05T05:46:42;39.65;;;17.17;;
43823;SDS011;29470;53.550;9.926;2022-12-05T05:51:47;44.08;;;17.13;;
43823;SDS011;29470;53.550;9.926;2022-12-05T05:56:50;44.20;;;18.20;;
43823;SDS011;29470;53.550;9.926;2022-12-05T06:01:53;48.25;;;18.20;;
43823;SDS011;29470;53.550;9.926;2022-12-05T06:06:57;45.60;;;16.42;;
43823;SDS011;29470;53.550;9.926;2022-12-05T06:12:00;50.45;;;18.25;;
43823;SDS011;29470;53.550;9.926;2022-12-05T06:17:03;55.65;;;19.88;;
43823;SDS011;29470;53.550;9.926;2022-12-05T06:22:07;51.33;;;18.83;;
43823;SDS011;29470;53.550;9.926;2022-12-05T06:27:10;53.25;;;20.13;;
43823;SDS011;29470;53.550;9.926;2022-12-05T06:32:13;54.65;;;19.95;;
43823;SDS011;29470;53.550;9.926;2022-12-05T06:37:17;52.40;;;18.95;;
43823;SDS011;29470;53.550;9.926;2022-12-05T06:42:20;58.00;;;18.40;;
43823;SDS011;29470;53.550;9.926;2022-12-05T06:47:23;58.25;;;19.83;;
43823;SDS011;29470;53.550;9.926;2022-12-05T06:52:27;54.47;;;19.95;;
43823;SDS011;29470;53.550;9.926;2022-12-05T06:57:30;52.55;;;18.45;;
43823;SDS011;29470;53.550;9.926;2022-12-05T07:02:42;51.45;;;19.55;;
43823;SDS011;29470;53.550;9.926;2022-12-05T07:08:33;54.70;;;19.00;;
43823;SDS011;29470;53.550;9.926;2022-12-05T07:26:08;66.57;;;21.92;;
43823;SDS011;29470;53.550;9.926;2022-12-05T07:31:14;66.25;;;22.25;;
43823;SDS011;29470;53.550;9.926;2022-12-05T07:36:19;70.72;;;22.15;;
43823;SDS011;29470;53.550;9.926;2022-12-05T07:41:25;71.85;;;22.92;;
43823;SDS011;29470;53.550;9.926;2022-12-05T07:46:31;70.20;;;22.48;;
43823;SDS011;29470;53.550;9.926;2022-12-05T07:51:35;63.90;;;22.02;;
43823;SDS011;29470;53.550;9.926;2022-12-05T07:56:43;50.75;;;19.02;;
43823;SDS011;29470;53.550;9.926;2022-12-05T08:01:48;74.05;;;18.23;;
43823;SDS011;29470;53.550;9.926;2022-12-05T08:06:54;49.72;;;16.27;;
43823;SDS011;29470;53.550;9.926;2022-12-05T08:11:58;47.58;;;17.02;;
43823;SDS011;29470;53.550;9.926;2022-12-05T08:17:01;48.60;;;16.48;;
43823;SDS011;29470;53.550;9.926;2022-12-05T08:22:07;51.80;;;16.77;;
43823;SDS011;29470;53.550;9.926;2022-12-05T08:27:12;40.28;;;14.45;;
43823;SDS011;29470;53.550;9.926;2022-12-05T08:32:16;43.72;;;16.98;;
43823;SDS011;29470;53.550;9.926;2022-12-05T08:37:19;41.33;;;15.63;;
43823;SDS011;29470;53.550;9.926;2022-12-05T08:42:23;42.95;;;15.88;;
43823;SDS011;29470;53.550;9.926;2022-12-05T08:47:26;46.17;;;17.45;;
43823;SDS011;29470;53.550;9.926;2022-12-05T08:52:32;45.95;;;16.10;;
43823;SDS011;29470;53.550;9.926;2022-12-05T08:57:36;46.22;;;14.63;;
43823;SDS011;29470;53.550;9.926;2022-12-05T09:02:39;45.72;;;16.50;;
43823;SDS011;29470;53.550;9.926;2022-12-05T09:07:42;48.92;;;15.45;;
43823;SDS011;29470;53.550;9.926;2022-12-05T09:12:47;49.90;;;17.15;;
43823;SDS011;29470;53.550;9.926;2022-12-05T09:17:50;55.75;;;18.50;;
43823;SDS011;29470;53.550;9.926;2022-12-05T09:23:06;58.83;;;19.90;;
43823;SDS011;29470;53.550;9.926;2022-12-05T09:28:17;50.25;;;18.63;;
43823;SDS011;29470;53.550;9.926;2022-12-05T09:33:29;46.15;;;16.20;;
43823;SDS011;29470;53.550;9.926;2022-12-05T09:38:35;46.15;;;16.40;;
43823;SDS011;29470;53.550;9.926;2022-12-05T09:43:46;43.22;;;14.10;;
43823;SDS011;29470;53.550;9.926;2022-12-05T09:48:55;40.55;;;14.48;;
43823;SDS011;29470;53.550;9.926;2022-12-05T09:54:01;38.72;;;14.20;;
43823;SDS011;29470;53.550;9.926;2022-12-05T09:59:12;46.33;;;15.52;;
43823;SDS011;29470;53.550;9.926;2022-12-05T10:15:43;38.35;;;12.65;;
43823;SDS011;29470;53.550;9.926;2022-12-05T10:26:35;32.55;;;11.23;;
43823;SDS011;29470;53.550;9.926;2022-12-05T10:32:29;30.98;;;12.75;;
43823;SDS011;29470;53.550;9.926;2022-12-05T10:37:40;29.92;;;12.30;;
43823;SDS011;29470;53.550;9.926;2022-12-05T10:43:20;34.70;;;12.30;;
43823;SDS011;29470;53.550;9.926;2022-12-05T10:48:37;37.10;;;13.23;;
43823;SDS011;29470;53.550;9.926;2022-12-05T10:53:44;37.08;;;13.30;;
43823;SDS011;29470;53.550;9.926;2022-12-05T10:59:03;34.83;;;13.80;;
43823;SDS011;29470;53.550;9.926;2022-12-05T11:04:28;34.38;;;12.60;;
43823;SDS011;29470;53.550;9.926;2022-12-05T11:09:47;34.05;;;13.73;;
43823;SDS011;29470;53.550;9.926;2022-12-05T11:14:59;35.17;;;14.13;;
43823;SDS011;29470;53.550;9.926;2022-12-05T11:20:39;34.05;;;12.50;;
43823;SDS011;29470;53.550;9.926;2022-12-05T11:25:57;34.88;;;12.50;;
43823;SDS011;29470;53.550;9.926;2022-12-05T11:31:27;34.63;;;14.35;;
43823;SDS011;29470;53.550;9.926;2022-12-05T13:04:26;21.52;;;9.57;;
43823;SDS011;29470;53.550;9.926;2022-12-05T13:09:34;22.38;;;9.63;;
43823;SDS011;29470;53.550;9.926;2022-12-05T13:14:49;23.25;;;10.23;;
43823;SDS011;29470;53.550;9.926;2022-12-05T13:20:00;23.35;;;9.93;;
43823;SDS011;29470;53.550;9.926;2022-12-05T13:25:04;21.15;;;10.57;;
43823;SDS011;29470;53.550;9.926;2022-12-05T13:30:14;19.75;;;9.82;;
43823;SDS011;29470;53.550;9.926;2022-12-05T13:35:23;22.45;;;10.05;;
43823;SDS011;29470;53.550;9.926;2022-12-05T13:41:46;21.98;;;10.13;;
43823;SDS011;29470;53.550;9.926;2022-12-05T13:47:28;20.80;;;10.27;;
43823;SDS011;29470;53.550;9.926;2022-12-05T13:52:44;16.67;;;8.88;;
43823;SDS011;29470;53.550;9.926;2022-12-05T14:03:56;21.52;;;9.60;;
43823;SDS011;29470;53.550;9.926;2022-12-05T14:09:01;17.83;;;9.65;;
43823;SDS011;29470;53.550;9.926;2022-12-05T14:14:06;19.45;;;9.80;;
43823;SDS011;29470;53.550;9.926;2022-12-05T15:18:33;18.08;;;8.15;;
43823;SDS011;29470;53.550;9.926;2022-12-05T15:23:41;16.65;;;7.70;;
43823;SDS011;29470;53.550;9.926;2022-12-05T15:29:00;17.17;;;7.95;;
43823;SDS011;29470;53.550;9.926;2022-12-05T15:34:10;15.30;;;7.85;;
43823;SDS011;29470;53.550;9.926;2022-12-05T15:39:25;16.52;;;7.65;;
43823;SDS011;29470;53.550;9.926;2022-12-05T15:50:50;13.68;;;7.00;;
43823;SDS011;29470;53.550;9.926;2022-12-05T15:56:38;15.45;;;7.35;;
43823;SDS011;29470;53.550;9.926;2022-12-05T16:02:00;20.92;;;9.35;;
43823;SDS011;29470;53.550;9.926;2022-12-05T16:07:13;17.98;;;8.60;;
43823;SDS011;29470;53.550;9.926;2022-12-05T16:12:24;16.80;;;8.63;;
43823;SDS011;29470;53.550;9.926;2022-12-05T16:17:36;16.55;;;8.52;;
43823;SDS011;29470;53.550;9.926;2022-12-05T16:22:47;16.90;;;7.85;;
43823;SDS011;29470;53.550;9.926;2022-12-05T16:27:57;16.25;;;7.72;;
43823;SDS011;29470;53.550;9.926;2022-12-05T16:33:03;19.90;;;9.88;;
43823;SDS011;29470;53.550;9.926;2022-12-05T16:38:11;16.83;;;8.23;;
43823;SDS011;29470;53.550;9.926;2022-12-05T16:43:17;15.77;;;8.93;;
43823;SDS011;29470;53.550;9.926;2022-12-05T16:48:25;18.45;;;8.30;;
43823;SDS011;29470;53.550;9.926;2022-12-05T16:53:31;17.95;;;8.82;;
43823;SDS011;29470;53.550;9.926;2022-12-05T16:58:34;20.42;;;9.45;;
43823;SDS011;29470;53.550;9.926;2022-12-05T17:03:37;17.50;;;8.40;;
43823;SDS011;29470;53.550;9.926;2022-12-05T17:08:41;16.60;;;7.85;;
43823;SDS011;29470;53.550;9.926;2022-12-05T17:13:45;14.60;;;7.72;;
43823;SDS011;29470;53.550;9.926;2022-12-05T17:18:49;16.80;;;8.20;;
43823;SDS011;29470;53.550;9.926;2022-12-05T17:23:54;19.75;;;9.32;;
43823;SDS011;29470;53.550;9.926;2022-12-05T17:28:57;16.40;;;8.85;;
43823;SDS011;29470;53.550;9.926;2022-12-05T17:34:00;18.50;;;8.52;;
43823;SDS011;29470;53.550;9.926;2022-12-05T17:39:04;16.17;;;7.97;;
43823;SDS011;29470;53.550;9.926;2022-12-05T17:44:09;18.13;;;8.07;;
43823;SDS011;29470;53.550;9.926;2022-12-05T17:49:14;15.40;;;7.85;;
43823;SDS011;29470;53.550;9.926;2022-12-05T17:54:19;16.65;;;8.40;;
43823;SDS011;29470;53.550;9.926;2022-12-05T17:59:22;15.65;;;8.15;;
43823;SDS011;29470;53.550;9.926;2022-12-05T18:04:25;16.77;;;8.65;;
43823;SDS011;29470;53.550;9.926;2022-12-05T18:09:29;17.25;;;8.93;;
43823;SDS011;29470;53.550;9.926;2022-12-05T18:14:33;18.98;;;9.20;;
43823;SDS011;29470;53.550;9.926;2022-12-05T18:19:36;17.75;;;9.13;;
43823;SDS011;29470;53.550;9.926;2022-12-05T18:24:41;16.70;;;9.18;;
43823;SDS011;29470;53.550;9.926;2022-12-05T18:29:45;19.25;;;9.38;;
43823;SDS011;29470;53.550;9.926;2022-12-05T18:34:48;21.52;;;10.05;;
43823;SDS011;29470;53.550;9.926;2022-12-05T18:39:55;22.67;;;10.20;;
43823;SDS011;29470;53.550;9.926;2022-12-05T18:44:58;18.65;;;9.93;;
43823;SDS011;29470;53.550;9.926;2022-12-05T18:50:02;17.20;;;9.43;;
43823;SDS011;29470;53.550;9.926;2022-12-05T18:55:07;23.33;;;10.93;;
43823;SDS011;29470;53.550;9.926;2022-12-05T19:00:28;22.77;;;11.15;;
43823;SDS011;29470;53.550;9.926;2022-12-05T19:05:31;20.73;;;10.23;;
43823;SDS011;29470;53.550;9.926;2022-12-05T19:10:36;20.67;;;10.88;;
43823;SDS011;29470;53.550;9.926;2022-12-05T19:15:39;19.65;;;9.60;;
43823;SDS011;29470;53.550;9.926;2022-12-05T19:20:55;21.20;;;10.65;;
43823;SDS011;29470;53.550;9.926;2022-12-05T19:26:40;22.50;;;11.10;;
43823;SDS011;29470;53.550;9.926;2022-12-05T19:31:50;26.92;;;12.57;;
43823;SDS011;29470;53.550;9.926;2022-12-05T19:37:08;20.85;;;10.88;;
43823;SDS011;29470;53.550;9.926;2022-12-05T19:42:33;23.42;;;11.07;;
43823;SDS011;29470;53.550;9.926;2022-12-05T19:47:50;27.23;;;11.98;;
43823;SDS011;29470;53.550;9.926;2022-12-05T19:53:11;23.85;;;11.95;;
43823;SDS011;29470;53.550;9.926;2022-12-05T20:04:36;25.27;;;12.27;;
43823;SDS011;29470;53.550;9.926;2022-12-05T20:10:58;22.58;;;12.43;;
43823;SDS011;29470;53.550;9.926;2022-12-05T20:16:38;22.00;;;10.93;;
43823;SDS011;29470;53.550;9.926;2022-12-05T20:21:54;25.27;;;10.73;;
43823;SDS011;29470;53.550;9.926;2022-12-05T20:27:08;27.15;;;11.90;;
43823;SDS011;29470;53.550;9.926;2022-12-05T20:32:15;26.67;;;12.55;;
43823;SDS011;29470;53.550;9.926;2022-12-05T20:37:20;27.73;;;13.00;;
43823;SDS011;29470;53.550;9.926;2022-12-05T20:42:29;26.73;;;11.40;;
43823;SDS011;29470;53.550;9.926;2022-12-05T20:54:15;25.08;;;12.05;;
43823;SDS011;29470;53.550;9.926;2022-12-05T20:59:34;24.42;;;11.18;;
43823;SDS011;29470;53.550;9.926;2022-12-05T21:04:54;28.35;;;13.57;;
43823;SDS011;29470;53.550;9.926;2022-12-05T21:24:25;21.83;;;10.80;;
43823;SDS011;29470;53.550;9.926;2022-12-05T21:46:53;29.45;;;14.18;;
43823;SDS011;29470;53.550;9.926;2022-12-05T21:51:59;26.67;;;11.55;;
43823;SDS011;29470;53.550;9.926;2022-12-05T21:57:04;24.17;;;11.27;;
43823;SDS011;29470;53.550;9.926;2022-12-05T22:02:08;25.73;;;12.30;;
43823;SDS011;29470;53.550;9.926;2022-12-05T22:07:11;27.30;;;12.95;;
43823;SDS011;29470;53.550;9.926;2022-12-05T22:12:15;25.65;;;12.23;;
43823;SDS011;29470;53.550;9.926;2022-12-05T22:17:18;25.65;;;12.18;;
43823;SDS011;29470;53.550;9.926;2022-12-05T22:22:21;28.40;;;12.27;;
43823;SDS011;29470;53.550;9.926;2022-12-05T22:27:25;28.60;;;13.40;;
43823;SDS011;29470;53.550;9.926;2022-12-05T22:32:30;30.08;;;13.48;;
43823;SDS011;29470;53.550;9.926;2022-12-05T22:37:33;27.30;;;12.13;;
43823;SDS011;29470;53.550;9.926;2022-12-05T22:42:37;26.42;;;11.75;;
43823;SDS011;29470;53.550;9.926;2022-12-05T22:47:40;26.23;;;11.90;;
43823;SDS011;29470;53.550;9.926;2022-12-05T22:52:43;26.92;;;12.93;;
43823;SDS011;29470;53.550;9.926;2022-12-05T22:57:47;28.23;;;12.50;;
43823;SDS011;29470;53.550;9.926;2022-12-05T23:02:51;26.60;;;12.32;;
43823;SDS011;29470;53.550;9.926;2022-12-05T23:07:54;25.55;;;12.23;;
43823;SDS011;29470;53.550;9.926;2022-12-05T23:12:58;28.65;;;12.48;;
43823;SDS011;29470;53.550;9.926;2022-12-05T23:18:01;24.65;;;12.05;;
43823;SDS011;29470;53.550;9.926;2022-12-05T23:23:05;29.83;;;12.80;;
43823;SDS011;29470;53.550;9.926;2022-12-05T23:28:09;26.45;;;12.27;;
43823;SDS011;29470;53.550;9.926;2022-12-05T23:33:12;30.75;;;13.20;;
43823;SDS011;29470;53.550;9.926;2022-12-05T23:38:15;29.05;;;13.65;;
43823;SDS011;29470;53.550;9.926;2022-12-05T23:43:19;33.30;;;13.80;;
43823;SDS011;29470;53.550;9.926;2022-12-05T23:48:22;32.15;;;13.57;;
43823;SDS011;29470;53.550;9.926;2022-12-05T23:53:25;31.85;;;14.20;;
43823;SDS011;29470;53.550;9.926;2022-12-05T23:58:30;36.40;;;15.02;;
